El Dorado Springs, MO (64744)

1:06 AM CST on February 13, 2016 (GMT -0600)
St. Clair County | | Change Station
CLOSE
Current Station
Personal Weather Station
Location: Osceola, MO
Elevation: 965 ft
Nearby Weather Stations

Elev 965 ft 37.90 °N, 93.80 °W | Updated 29 seconds ago

Mostly Cloudy
Mostly Cloudy
23.2 °F
Feels Like 23 °F
N
0.0
Wind Variable Wind from ENE
Gusts 0.0 mph

Today
High -- | Low -- °F
--% Chance of Precip.
Yesterday
High -- | Low -- °F
Precip. -- in
Pressure 30.55 in
Visibility 10.0 miles
Clouds Mostly Cloudy 11000 ft
Windchill 23 °F
Dew Point -1 °F
Humidity 34%
Rainfall 0.00 in
Snow Depth Not available.
7:08 AM 5:52 PM
Waxing Crescent, 28% visible
METAR KPTS 130655Z AUTO 05008KT 10SM BKN110 M01/M09 A3055 RMK AO2 T10061092
Pressure 30.55 in
Visibility 10.0 miles
Clouds Mostly Cloudy 11000 ft
Windchill 23 °F
Dew Point -1 °F
Humidity 34%
Rainfall 0.00 in
Snow Depth Not available.
7:08 AM 5:52 PM
Waxing Crescent, 28% visible
METAR KPTS 130655Z AUTO 05008KT 10SM BKN110 M01/M09 A3055 RMK AO2 T10061092

10-Day Weather Forecast

Almanac

Astronomy

Feb. 13, 2016 Rise Set
Actual Time
Civil Twilight
Nautical Twilight
Astronomical Twilight
Moon
Length of Visible Light
Length of Day
Tomorrow will be .
, % of the Moon is Illuminated

Today's Extremes

State Highs State Lows

Community

WunderPhotos

Upload Photos

1,892,519 photos uploaded!

WunderBlog® & News

Nearby

Air Quality

  Air Quality AQ Index Pollutant
Not available.

Snow Depth

Station Depth Elevation

Earthquake Activity

City Distance Mag. Time & Date
Minimum magnitude displayed is 2.5.

Coastal Water Temperatures

Place Temperature

Stations

Nearby Weather Stations

Station Location Temp. Windchill Dew Point Humidity Wind Precip. Elev Updated Type
                   

Watches & Warnings

There are currently no watches in effect.